Time;durP1;ratioP1;P1;durP2;ratioP2;P2;SDS_P1;SDS_P2;PMS_P1;PMS_P2;Temp;Humidity;BMP_temperature;BMP_pressure;BME280_temperature;BME280_humidity;BME280_pressure;Samples;Min_cycle;Max_cycle;Signal;HPM_P1;HPM_P2
2023/03/11 00:03:07;;;;;;;;;15.00;14.00;;;;;10.35;100.00;97398.97;6281960;20;2804396;-48
2023/03/11 00:06:27;;;;;;;;;11.50;11.50;;;;;10.26;100.00;97396.16;6281689;20;2791983;-48
2023/03/11 00:09:23;;;;;;;;;10.20;10.20;;;;;10.19;100.00;97384.38;6306670;20;2786873;-46
2023/03/11 00:12:19;;;;;;;;;10.43;7.43;;;;;10.19;100.00;97405.81;6321769;20;1804488;-45
2023/03/11 00:15:31;;;;;;;;;6.50;5.00;;;;;10.13;99.72;97406.38;6314237;20;2737844;-47
2023/03/11 00:18:39;;;;;;;;;7.50;7.50;;;;;10.01;99.70;97399.56;6284018;20;2728450;-48
2023/03/11 00:21:58;;;;;;;;;7.00;7.00;;;;;9.88;99.43;97411.44;6303235;20;2746079;-47
2023/03/11 00:25:24;;;;;;;;;7.00;6.50;;;;;9.83;99.56;97416.38;6314261;20;2740980;-47
2023/03/11 00:28:44;;;;;;;;;2.50;2.50;;;;;9.80;97.82;97421.22;6298880;20;1812958;-47
2023/03/11 00:35:54;;;;;;;;;4.00;3.00;;;;;9.54;96.31;97426.34;6283246;20;2741975;-48
2023/03/11 00:39:20;;;;;;;;;3.00;3.00;;;;;9.50;96.03;97423.09;6279891;20;2747232;-49
2023/03/11 00:42:33;;;;;;;;;2.00;2.00;;;;;9.49;94.71;97418.72;6285489;20;2728783;-47
2023/03/11 00:45:59;;;;;;;;;2.25;2.25;;;;;9.43;94.44;97412.13;6294891;20;1807719;-45
2023/03/11 00:49:05;;;;;;;;;3.00;2.00;;;;;9.63;91.23;97420.09;6320347;20;2740901;-46
2023/03/11 00:52:17;;;;;;;;;1.00;1.00;;;;;9.57;90.71;97415.31;6304651;20;1807640;-49
2023/03/11 00:56:06;;;;;;;;;1.00;1.00;;;;;9.50;90.03;97420.41;6334462;20;1804777;-46
2023/03/11 00:59:11;;;;;;;;;3.00;0.00;;;;;9.59;88.49;97424.06;6338436;20;1803103;-48
2023/03/11 01:02:15;;;;;;;;;0.00;0.00;;;;;9.63;88.15;97418.25;6333586;20;1805081;-45
2023/03/11 01:05:48;;;;;;;;;0.00;0.00;;;;;9.64;88.47;97419.13;6338324;20;1800387;-45
2023/03/11 01:09:18;;;;;;;;;0.00;0.00;;;;;9.60;86.74;97413.19;6335575;20;1807618;-46
2023/03/11 01:13:04;;;;;;;;;0.00;0.00;;;;;9.62;86.15;97413.91;6333795;20;1804366;-44
2023/03/11 01:16:34;;;;;;;;;0.00;0.00;;;;;9.65;86.73;97418.13;6335413;20;1803513;-46
2023/03/11 01:19:40;;;;;;;;;0.25;0.25;;;;;9.72;85.27;97413.88;6335659;20;1807703;-47
2023/03/11 01:22:52;;;;;;;;;0.00;0.00;;;;;9.85;84.67;97424.28;6334434;20;1810316;-46
2023/03/11 01:25:55;;;;;;;;;0.00;0.00;;;;;9.78;84.13;97410.63;6335262;20;1803457;-44
2023/03/11 01:28:57;;;;;;;;;0.00;0.00;;;;;9.85;83.87;97424.28;6319545;20;3437724;-44
2023/03/11 01:32:30;;;;;;;;;1.00;0.00;;;;;9.91;83.58;97420.19;6304265;20;1807863;-46
2023/03/11 01:36:35;;;;;;;;;0.00;0.00;;;;;9.79;82.74;97417.66;6335760;20;1809521;-46
2023/03/11 01:40:08;;;;;;;;;0.00;0.00;;;;;9.81;82.59;97422.88;6332835;20;1802498;-45
2023/03/11 01:43:57;;;;;;;;;0.00;0.00;;;;;9.63;83.01;97418.25;6331401;20;1803969;-46
2023/03/11 01:48:05;;;;;;;;;0.00;0.00;;;;;9.43;83.70;97404.06;6333754;20;1807629;-45
2023/03/11 01:51:42;;;;;;;;;0.00;0.00;;;;;9.60;81.39;97397.13;5448169;20;18515532;-48
2023/03/11 01:54:55;;;;;;;;;0.00;0.00;;;;;9.51;81.69;97406.03;6331246;20;1807715;-47
2023/03/11 01:58:39;;;;;;;;;0.00;0.00;;;;;9.36;81.90;97392.25;6343606;20;2730658;-47
2023/03/11 02:02:13;;;;;;;;;0.00;0.00;;;;;9.27;81.86;97398.47;6327583;20;1803488;-45
2023/03/11 02:05:18;;;;;;;;;0.00;0.00;;;;;9.25;82.40;97395.09;6361745;20;1809785;-48
2023/03/11 02:08:39;;;;;;;;;0.00;0.00;;;;;9.33;80.46;97394.38;6362143;20;1809752;-47
2023/03/11 02:11:55;;;;;;;;;0.00;0.00;;;;;9.26;79.85;97398.59;6360079;20;1804555;-48
2023/03/11 02:15:12;;;;;;;;;0.00;0.00;;;;;9.31;78.76;97378.44;6359577;20;1809746;-48
2023/03/11 02:18:22;;;;;;;;;2.50;0.00;;;;;9.18;78.18;97377.88;6357423;20;1803598;-46
2023/03/11 02:22:18;;;;;;;;;0.00;0.00;;;;;9.14;78.70;97387.22;6357117;20;1803460;-46
2023/03/11 02:26:44;;;;;;;;;0.00;0.00;;;;;8.99;79.01;97389.47;6360085;20;1809746;-46
2023/03/11 02:29:55;;;;;;;;;1.00;0.00;;;;;9.01;78.49;97408.91;6357812;20;1803496;-45
2023/03/11 02:33:24;;;;;;;;;0.00;0.00;;;;;9.00;78.49;97408.06;6358636;20;1802459;-45
2023/03/11 02:37:14;;;;;;;;;2.00;0.00;;;;;8.90;79.25;97428.63;6359302;20;1796924;-46
2023/03/11 02:40:54;;;;;;;;;0.00;0.00;;;;;8.73;80.03;97421.28;6358860;20;1803524;-48
2023/03/11 02:43:58;;;;;;;;;0.00;0.00;;;;;8.70;79.25;97418.88;6359386;20;1802547;-48
2023/03/11 02:47:02;;;;;;;;;0.00;0.00;;;;;8.66;79.97;97420.13;6359200;20;1803449;-45
2023/03/11 02:50:19;;;;;;;;;0.00;0.00;;;;;8.65;79.49;97418.44;6352406;20;1809848;-46
2023/03/11 02:53:39;;;;;;;;;1.00;0.00;;;;;8.75;78.82;97414.81;6359054;20;1803518;-46
2023/03/11 02:57:13;;;;;;;;;0.00;0.00;;;;;8.86;77.11;97410.31;6358134;20;1807784;-44
2023/03/11 03:00:26;;;;;;;;;1.00;0.00;;;;;9.04;76.13;97411.28;6341659;20;3430466;-45
2023/03/11 03:03:20;;;;;;;;;0.00;0.00;;;;;9.11;72.17;97415.09;6304733;20;1807364;-58
2023/03/11 03:06:09;;;;;;;;;0.00;0.00;;;;;9.10;70.61;97412.56;6335293;20;1809755;-58
2023/03/11 03:08:58;;;;;;;;;0.00;0.00;;;;;9.05;69.77;97409.47;6336253;20;1803518;-58
2023/03/11 03:11:46;;;;;;;;;0.67;0.00;;;;;9.19;67.10;97406.38;6338434;20;1806168;-58
2023/03/11 03:14:35;;;;;;;;;0.00;0.00;;;;;9.08;67.44;97409.16;6336758;20;1803480;-58
2023/03/11 03:17:24;;;;;;;;;3.00;0.00;;;;;9.10;65.84;97407.22;6335860;20;1803395;-57
2023/03/11 03:20:14;;;;;;;;;0.00;0.00;;;;;9.15;64.40;97405.78;6336103;20;1803488;-58
2023/03/11 03:23:03;;;;;;;;;1.00;0.00;;;;;9.13;63.98;97412.28;6333021;20;1809775;-58
2023/03/11 03:25:51;;;;;;;;;0.00;0.00;;;;;9.00;64.96;97402.72;6335227;20;1803470;-58
2023/03/11 03:28:40;;;;;;;;;0.00;0.00;;;;;9.00;64.96;97402.72;6335642;20;1803478;-58
2023/03/11 03:31:28;;;;;;;;;0.00;0.00;;;;;9.16;63.20;97428.03;6316246;20;3432598;-57
2023/03/11 03:34:16;;;;;;;;;0.00;0.00;;;;;9.17;63.76;97419.88;6336975;20;1809787;-57
2023/03/11 03:37:05;;;;;;;;;0.00;0.00;;;;;9.17;63.99;97424.41;6335274;20;1796171;-58
2023/03/11 03:39:54;;;;;;;;;0.00;0.00;;;;;9.15;63.88;97429.03;6332792;20;1803456;-58
2023/03/11 03:42:43;;;;;;;;;0.00;0.00;;;;;9.33;64.96;97434.53;6332844;20;1805588;-58
2023/03/11 03:45:32;;;;;;;;;1.50;0.00;;;;;9.35;63.72;97438.75;6335393;20;1810014;-58
2023/03/11 03:48:20;;;;;;;;;0.00;0.00;;;;;9.34;63.17;97447.75;6334776;20;1805574;-58
2023/03/11 03:51:12;;;;;;;;;0.00;0.00;;;;;9.35;63.83;97448.63;6330453;20;1803466;-58
2023/03/11 03:54:00;;;;;;;;;0.00;0.00;;;;;9.34;62.49;97442.41;6333234;20;1805411;-57
2023/03/11 03:56:49;;;;;;;;;0.00;0.00;;;;;9.48;60.76;97456.34;6334690;20;1807641;-56
2023/03/11 03:59:37;;;;;;;;;0.00;0.00;;;;;9.45;59.81;97439.59;6334430;20;1805134;-58
2023/03/11 04:02:27;;;;;;;;;0.00;0.00;;;;;9.44;60.79;97442.41;6332995;20;1805556;-56
2023/03/11 04:05:15;;;;;;;;;0.00;0.00;;;;;9.45;59.55;97444.09;6334583;20;1802405;-57
2023/03/11 04:08:04;;;;;;;;;0.00;0.00;;;;;9.34;59.95;97447.75;6332482;20;1808104;-57
2023/03/11 04:10:57;;;;;;;;;0.00;0.00;;;;;9.39;61.42;97456.22;6331537;20;1801415;-58
2023/03/11 04:13:25;;;;;;;;;0.00;0.00;;;;;9.35;60.49;97459.34;6330911;20;1809833;-57
2023/03/11 04:15:54;;;;;;;;;0.00;0.00;;;;;9.34;60.58;97453.13;6332979;20;1804086;-56
2023/03/11 04:18:23;;;;;;;;;1.00;1.00;;;;;9.29;61.83;97450.03;6334185;20;1803600;-58
2023/03/11 04:20:50;;;;;;;;;0.00;0.00;;;;;9.25;61.86;97459.34;6319576;20;2700332;-59
2023/03/11 04:23:18;;;;;;;;;2.00;2.00;;;;;9.36;61.86;97459.19;6284218;20;3451366;-59
2023/03/11 04:25:49;;;;;;;;;5.00;1.80;;;;;9.34;61.93;97473.72;6327678;20;3456511;-58
2023/03/11 04:28:17;;;;;;;;;4.00;4.00;;;;;9.23;62.44;97461.31;6318689;20;2748235;-58
2023/03/11 04:30:45;;;;;;;;;2.00;2.00;;;;;9.09;63.70;97475.97;6300025;20;1816002;-58
2023/03/11 04:33:14;;;;;;;;;0.00;0.00;;;;;9.25;61.85;97485.28;6331659;20;1803567;-58
2023/03/11 04:35:43;;;;;;;;;1.00;0.00;;;;;9.17;60.71;97489.50;6334588;20;1803527;-58
2023/03/11 04:38:11;;;;;;;;;2.00;0.00;;;;;9.12;59.92;97502.44;6332982;20;1804577;-59
2023/03/11 04:40:40;;;;;;;;;0.00;0.00;;;;;9.02;60.99;97513.13;6332446;20;1803417;-58
2023/03/11 04:43:08;;;;;;;;;0.00;0.00;;;;;8.92;60.29;97522.97;6334057;20;1800445;-58
2023/03/11 04:45:41;;;;;;;;;0.00;0.00;;;;;8.99;58.26;97518.78;6335883;20;1805598;-59
2023/03/11 04:48:09;;;;;;;;;0.00;0.00;;;;;9.01;55.51;97515.97;6332001;20;1805739;-59
2023/03/11 04:50:38;;;;;;;;;0.00;0.00;;;;;8.88;54.76;97526.94;6331419;20;1803545;-58
2023/03/11 04:53:06;;;;;;;;;0.00;0.00;;;;;8.83;55.69;97529.16;6333947;20;1809835;-58
2023/03/11 04:55:35;;;;;;;;;0.00;0.00;;;;;8.81;55.37;97528.44;6335734;20;1809730;-58
2023/03/11 04:58:04;;;;;;;;;0.75;0.00;;;;;8.64;53.98;97526.44;6330462;20;1805700;-55
2023/03/11 05:00:32;;;;;;;;;1.00;1.00;;;;;8.61;53.59;97524.00;6331037;20;1812937;-55
2023/03/11 05:03:00;;;;;;;;;2.00;2.00;;;;;8.55;54.08;97523.56;6316274;20;2741943;-59
2023/03/11 05:05:28;;;;;;;;;2.00;0.00;;;;;8.50;53.81;97528.47;6282776;20;3432659;-58
2023/03/11 05:07:56;;;;;;;;;0.00;0.00;;;;;8.57;54.19;97524.28;6333495;20;1798243;-58
2023/03/11 05:10:25;;;;;;;;;1.00;1.00;;;;;8.57;54.67;97529.63;6333644;20;1803497;-58
2023/03/11 05:12:53;;;;;;;;;1.00;1.00;;;;;8.44;54.72;97530.84;6334489;20;1809301;-58
2023/03/11 05:15:22;;;;;;;;;0.00;0.00;;;;;8.46;54.44;97537.75;6333435;20;1805635;-57
2023/03/11 05:17:50;;;;;;;;;0.00;0.00;;;;;8.17;56.49;97526.91;6333878;20;1804447;-58
2023/03/11 05:20:19;;;;;;;;;1.00;1.00;;;;;8.24;55.72;97533.41;6329672;20;1811816;-59
2023/03/11 05:22:47;;;;;;;;;6.75;4.25;;;;;8.29;55.22;97535.66;6330043;20;1814864;-58
2023/03/11 05:25:15;;;;;;;;;1.00;1.00;;;;;8.31;55.29;97533.72;6317072;20;3435756;-58
2023/03/11 05:27:43;;;;;;;;;7.50;5.00;;;;;8.17;56.32;97531.41;6282081;20;2750293;-58
2023/03/11 05:30:12;;;;;;;;;4.50;1.25;;;;;8.26;56.87;97551.97;6301633;20;1815074;-58
2023/03/11 05:32:40;;;;;;;;;3.25;3.25;;;;;8.20;57.07;97552.53;6333735;20;1810493;-59
2023/03/11 05:35:09;;;;;;;;;5.25;3.00;;;;;7.97;58.36;97567.84;6330640;20;1812900;-58
2023/03/11 05:37:38;;;;;;;;;2.75;1.00;;;;;7.93;56.43;97556.59;6330506;20;1800420;-58
2023/03/11 05:40:10;;;;;;;;;0.50;0.00;;;;;7.84;57.03;97568.03;6332144;20;1802875;-57
2023/03/11 05:42:40;;;;;;;;;0.00;0.00;;;;;7.89;56.52;97561.31;6333506;20;1809766;-57
2023/03/11 05:45:10;;;;;;;;;5.00;1.00;;;;;7.85;55.38;97564.41;6329141;20;1807665;-58
2023/03/11 05:47:41;;;;;;;;;1.50;0.50;;;;;7.69;55.76;97563.00;6334515;20;1812312;-58
2023/03/11 05:50:11;;;;;;;;;0.50;0.50;;;;;7.65;56.21;97572.25;6330366;20;1805525;-58
2023/03/11 05:52:40;;;;;;;;;2.00;0.75;;;;;7.69;55.95;97571.03;6333525;20;1805495;-58
2023/03/11 05:55:11;;;;;;;;;1.75;0.75;;;;;7.69;56.22;97576.38;6332135;20;1804237;-57
2023/03/11 05:57:39;;;;;;;;;2.25;1.00;;;;;7.51;56.97;97571.72;6333340;20;1805436;-58
2023/03/11 06:00:10;;;;;;;;;1.50;1.50;;;;;7.52;56.83;97574.25;6330391;20;1804482;-57
2023/03/11 06:02:40;;;;;;;;;0.50;0.50;;;;;7.60;57.01;97581.63;6328653;20;1803429;-57
2023/03/11 06:05:09;;;;;;;;;1.00;0.00;;;;;7.58;54.67;97584.44;6331279;20;1803449;-57
2023/03/11 06:07:40;;;;;;;;;1.00;0.00;;;;;7.41;52.01;97620.53;6330532;20;1803421;-58
2023/03/11 06:10:10;;;;;;;;;0.00;0.00;;;;;7.41;50.76;97596.50;6332892;20;1803420;-57
2023/03/11 06:12:39;;;;;;;;;2.00;0.00;;;;;7.49;49.65;97611.88;6328374;20;1809669;-58
2023/03/11 06:15:08;;;;;;;;;2.00;0.00;;;;;7.44;48.73;97616.75;6327589;20;1802413;-59
2023/03/11 06:17:37;;;;;;;;;0.00;0.00;;;;;7.30;49.15;97620.56;6332503;20;1803452;-58
2023/03/11 06:20:06;;;;;;;;;0.00;0.00;;;;;7.26;48.94;97606.59;6331586;20;1803070;-58
2023/03/11 06:22:35;;;;;;;;;0.00;0.00;;;;;7.38;48.87;97614.59;6330839;20;1803452;-59
2023/03/11 06:25:07;;;;;;;;;0.00;0.00;;;;;7.54;48.45;97608.84;6331490;20;1803560;-59
2023/03/11 06:27:37;;;;;;;;;2.00;0.00;;;;;7.70;49.21;97627.97;6330943;20;1803412;-59
2023/03/11 06:30:06;;;;;;;;;0.75;0.00;;;;;7.33;49.98;97643.50;6332080;20;1802404;-59
2023/03/11 06:32:35;;;;;;;;;3.50;3.50;;;;;7.37;50.76;97642.25;6312185;20;2755565;-59
2023/03/11 06:35:05;;;;;;;;;1.00;0.00;;;;;7.08;49.98;97656.13;6300116;20;1802415;-58
2023/03/11 06:37:36;;;;;;;;;0.00;0.00;;;;;7.04;50.67;97654.69;6336428;20;1802948;-58
2023/03/11 06:40:08;;;;;;;;;1.00;1.00;;;;;7.08;51.33;97677.47;6336037;20;1805569;-58
2023/03/11 06:42:36;;;;;;;;;1.00;1.00;;;;;6.93;51.24;97662.72;6334071;20;1809848;-58
2023/03/11 06:45:06;;;;;;;;;2.50;1.00;;;;;7.12;51.46;97678.94;6333940;20;1803373;-58
2023/03/11 06:47:35;;;;;;;;;3.00;2.00;;;;;7.36;50.41;97683.28;6335300;20;1807650;-59
2023/03/11 06:50:05;;;;;;;;;1.00;1.00;;;;;7.86;47.78;97672.94;6318463;20;3448295;-59
2023/03/11 06:52:37;;;;;;;;;2.00;1.00;;;;;7.19;48.58;97688.16;6301242;20;1803530;-58
2023/03/11 06:55:06;;;;;;;;;1.00;0.00;;;;;7.13;48.97;97687.78;6335781;20;1802901;-58
2023/03/11 06:57:35;;;;;;;;;1.50;0.00;;;;;6.85;49.41;97691.81;6333875;20;1805502;-58
2023/03/11 07:00:10;;;;;;;;;1.50;1.00;;;;;7.33;48.84;97686.19;6334513;20;1809283;-57
2023/03/11 07:02:38;;;;;;;;;4.00;4.00;;;;;7.06;49.14;97695.44;6319967;20;2740014;-58
2023/03/11 07:05:07;;;;;;;;;1.00;1.00;;;;;7.55;48.17;97702.16;6288303;20;3444079;-58
2023/03/11 07:07:35;;;;;;;;;0.00;0.00;;;;;7.13;48.23;97696.63;6306747;20;1811751;-57
2023/03/11 07:10:05;;;;;;;;;0.00;0.00;;;;;7.66;46.76;97710.19;6335948;20;1803448;-54
2023/03/11 07:12:34;;;;;;;;;0.00;0.00;;;;;-146.39;58.15;62182.44;6333868;20;1803474;-59
2023/03/11 07:15:03;;;;;;;;;1.50;1.00;;;;;-146.39;100.00;62182.44;6331924;20;1809712;-58
2023/03/11 07:17:32;;;;;;;;;1.00;1.00;;;;;-146.39;100.00;62182.44;6336121;20;1802426;-58
2023/03/11 07:20:00;;;;;;;;;1.75;1.75;;;;;-146.39;100.00;62182.44;6335608;20;1809546;-58
2023/03/11 07:22:30;;;;;;;;;4.00;2.00;;;;;-146.39;100.00;62182.44;6317254;20;2756594;-58
2023/03/11 07:24:58;;;;;;;;;1.00;1.00;;;;;-146.39;100.00;62182.44;6304058;20;1806674;-58
2023/03/11 07:27:27;;;;;;;;;5.00;3.50;;;;;-146.39;100.00;62182.44;6318335;20;2746093;-58
2023/03/11 07:29:56;;;;;;;;;2.00;2.00;;;;;-146.39;100.00;62182.44;6301433;20;1805495;-59
2023/03/11 07:32:24;;;;;;;;;1.00;1.00;;;;;-146.39;100.00;62182.44;6333156;20;1806740;-59
2023/03/11 07:34:53;;;;;;;;;1.00;1.00;;;;;-146.39;100.00;62182.44;6339064;20;1807763;-59
2023/03/11 07:37:22;;;;;;;;;1.50;1.50;;;;;-146.39;100.00;62182.44;6337105;20;1809793;-58
2023/03/11 07:39:50;;;;;;;;;4.00;2.50;;;;;-146.39;100.00;62182.44;6321188;20;2754416;-57
2023/03/11 07:42:18;;;;;;;;;3.00;2.00;;;;;-146.39;100.00;62182.44;6305141;20;1811849;-58
2023/03/11 07:44:49;;;;;;;;;1.00;1.00;;;;;7.70;46.65;97741.00;6319946;20;3434633;-57
2023/03/11 07:47:17;;;;;;;;;4.50;2.00;;;;;7.30;46.79;97747.84;6319051;20;2754482;-57
2023/03/11 07:49:46;;;;;;;;;1.00;1.00;;;;;7.60;46.76;97732.00;6304069;20;1803524;-58
2023/03/11 07:52:14;;;;;;;;;2.00;2.00;;;;;7.89;46.49;97734.13;6337390;20;1807589;-58
2023/03/11 07:54:44;;;;;;;;;1.00;1.00;;;;;7.40;46.69;97741.66;6335740;20;1803477;-58
2023/03/11 07:57:15;;;;;;;;;2.00;2.00;;;;;7.46;47.00;97746.50;6321476;20;2752370;-57
2023/03/11 07:59:44;;;;;;;;;3.00;1.00;;;;;7.32;46.88;97756.56;6306211;20;1809649;-57
2023/03/11 08:02:12;;;;;;;;;2.50;1.75;;;;;7.33;46.93;97747.59;6337321;20;1809736;-58
2023/03/11 08:04:41;;;;;;;;;1.00;1.00;;;;;7.29;46.70;97760.31;6337468;20;1816008;-57
2023/03/11 08:07:09;;;;;;;;;1.00;1.00;;;;;7.41;47.15;97758.50;6337332;20;1809661;-58
2023/03/11 08:09:37;;;;;;;;;3.00;1.00;;;;;7.02;47.70;97758.84;6321766;20;3435762;-57
2023/03/11 08:12:07;;;;;;;;;2.00;2.00;;;;;7.25;48.22;97759.72;6335149;20;1821274;-57
2023/03/11 08:14:35;;;;;;;;;1.00;1.00;;;;;7.20;47.95;97777.06;6337619;20;1809709;-57
2023/03/11 08:17:04;;;;;;;;;1.00;1.00;;;;;7.14;48.27;97773.06;6335972;20;1807602;-57
2023/03/11 08:19:33;;;;;;;;;1.00;1.00;;;;;7.14;48.27;97773.06;6333140;20;1805647;-57
2023/03/11 08:22:03;;;;;;;;;0.00;0.00;;;;;6.79;48.18;97783.78;6336333;20;1802491;-57
2023/03/11 08:24:31;;;;;;;;;4.00;3.00;;;;;6.58;48.58;97763.16;6318950;20;2739960;-57
2023/03/11 08:26:59;;;;;;;;;4.00;4.00;;;;;6.78;47.18;97760.75;6333901;20;1819120;-56
2023/03/11 08:29:28;;;;;;;;;3.00;1.75;;;;;6.98;47.34;97780.59;6334875;20;1822252;-58
2023/03/11 08:31:57;;;;;;;;;4.75;4.75;;;;;6.60;48.75;97789.69;6330873;20;1816901;-57
2023/03/11 08:34:26;;;;;;;;;1.67;1.67;;;;;6.79;48.46;97787.34;6319960;20;3440893;-57
2023/03/11 08:36:55;;;;;;;;;1.00;1.00;;;;;6.75;48.02;97793.84;6303874;20;1809624;-57
2023/03/11 08:39:23;;;;;;;;;2.00;2.00;;;;;6.93;48.35;97782.75;6336927;20;1804581;-51
2023/03/11 08:41:52;;;;;;;;;3.50;3.00;;;;;7.15;47.44;97795.25;6336789;20;1823316;-55
2023/03/11 08:44:21;;;;;;;;;2.00;2.00;;;;;7.10;47.35;97768.09;6336334;20;1812882;-57
2023/03/11 08:46:49;;;;;;;;;3.50;2.00;;;;;7.86;46.29;97774.47;6336850;20;1811834;-55
2023/03/11 08:49:18;;;;;;;;;7.00;5.00;;;;;8.23;46.14;97766.13;6330221;20;1818105;-57
2023/03/11 08:51:45;;;;;;;;;2.50;2.50;;;;;8.55;45.97;97761.63;6317563;20;2754449;-57
2023/03/11 08:54:14;;;;;;;;;3.00;1.00;;;;;7.53;46.87;97783.38;6304417;20;1806634;-56
2023/03/11 08:56:42;;;;;;;;;1.75;1.00;;;;;7.63;47.36;97787.84;6336671;20;1803552;-56
2023/03/11 08:59:13;;;;;;;;;5.00;4.00;;;;;7.84;46.77;97774.59;6317935;20;2746245;-57
2023/03/11 09:01:41;;;;;;;;;1.00;1.00;;;;;8.35;47.31;97765.94;6318887;20;2737792;-55
2023/03/11 09:04:10;;;;;;;;;2.25;2.00;;;;;7.69;47.34;97800.72;6335658;20;1803423;-57
2023/03/11 09:06:43;;;;;;;;;1.00;1.00;;;;;8.15;45.86;97798.81;6337925;20;1802408;-57
2023/03/11 09:09:12;;;;;;;;;1.00;1.00;;;;;7.82;45.27;97799.72;6287878;20;3435723;-58
2023/03/11 09:11:40;;;;;;;;;3.00;2.00;;;;;7.87;45.97;97792.19;6332481;20;1804524;-58
2023/03/11 09:14:09;;;;;;;;;2.00;2.00;;;;;8.34;45.06;97779.44;6333293;20;1809712;-56
2023/03/11 09:16:37;;;;;;;;;1.25;1.25;;;;;7.77;46.68;97794.78;6334337;20;1803120;-56
2023/03/11 09:19:06;;;;;;;;;3.50;0.00;;;;;7.70;46.08;97796.25;6336196;20;1805519;-56
2023/03/11 09:21:36;;;;;;;;;0.00;0.00;;;;;7.67;46.69;97818.69;6332216;20;1812281;-55
2023/03/11 09:24:06;;;;;;;;;2.00;2.00;;;;;7.78;47.47;97819.66;6316526;20;2744035;-55
2023/03/11 09:26:35;;;;;;;;;1.25;1.25;;;;;8.40;46.29;97826.22;6301821;20;1811835;-54
2023/03/11 09:29:04;;;;;;;;;1.00;1.00;;;;;8.67;45.39;97809.72;6335312;20;1803470;-57
2023/03/11 09:31:32;;;;;;;;;3.00;1.00;;;;;9.07;43.96;97817.91;6333797;20;1803531;-57
2023/03/11 09:34:00;;;;;;;;;3.00;1.00;;;;;8.94;45.06;97810.06;6331894;20;1807601;-53
2023/03/11 09:36:29;;;;;;;;;0.50;0.50;;;;;7.75;46.35;97798.53;6335496;20;1802359;-57
2023/03/11 09:38:59;;;;;;;;;1.00;0.00;;;;;7.76;46.56;97786.88;6334767;20;1800307;-55
2023/03/11 09:41:55;;;;;;;;;1.00;1.00;;;;;7.76;46.56;97786.88;6315284;20;3454433;-56
2023/03/11 09:45:22;;;;;;;;;2.00;2.00;;;;;-146.39;100.00;62182.44;6283572;20;2753494;-57
2023/03/11 09:48:02;;;;;;;;;4.25;1.75;;;;;8.08;46.59;97808.31;6299388;20;1803015;-56
2023/03/11 09:51:11;;;;;;;;;2.00;0.75;;;;;7.62;47.25;97796.84;6327993;20;1804960;-56
2023/03/11 09:53:46;;;;;;;;;2.00;0.00;;;;;7.35;47.63;97821.25;6329056;20;1807551;-57
2023/03/11 09:56:19;;;;;;;;;2.00;2.00;;;;;8.25;47.53;97818.47;6333700;20;1814386;-44
2023/03/11 09:59:03;;;;;;;;;2.00;2.00;;;;;7.92;47.15;97795.34;6331132;20;1816034;-45
2023/03/11 10:01:48;;;;;;;;;1.75;1.75;;;;;8.04;47.63;97810.38;6329882;20;1805508;-45
2023/03/11 10:04:34;;;;;;;;;1.50;1.00;;;;;8.17;46.48;97804.91;6332816;20;1809751;-44
2023/03/11 10:07:20;;;;;;;;;3.50;0.00;;;;;8.12;46.01;97799.91;6331926;20;1803500;-45
2023/03/11 10:09:57;;;;;;;;;3.50;1.00;;;;;8.57;45.67;97828.38;6316323;20;2726326;-42
2023/03/11 10:13:08;;;;;;;;;4.00;0.00;;;;;8.39;45.41;97833.41;6321472;20;2738859;-43
2023/03/11 10:16:18;;;;;;;;;3.00;2.00;;;;;9.06;45.06;97823.38;6320670;20;2746107;-42
2023/03/11 10:19:07;;;;;;;;;3.00;2.00;;;;;9.40;44.82;97835.59;6287415;20;2750384;-43
2023/03/11 10:21:50;;;;;;;;;1.00;1.00;;;;;8.79;45.32;97846.13;6305306;20;1809799;-42
2023/03/11 10:24:50;;;;;;;;;3.00;1.00;;;;;9.44;45.63;97844.19;6336240;20;1813936;-43
2023/03/11 10:27:33;;;;;;;;;3.00;2.00;;;;;9.15;46.07;97844.00;6320830;20;2754442;-43
2023/03/11 10:30:44;;;;;;;;;1.00;1.00;;;;;8.46;46.00;97837.28;6304981;20;1803495;-43
2023/03/11 10:33:44;;;;;;;;;5.25;1.75;;;;;9.09;45.46;97841.88;6333900;20;1800389;-43
2023/03/11 10:36:25;;;;;;;;;4.00;1.00;;;;;9.07;46.41;97852.69;6337918;20;1798212;-43
2023/03/11 10:38:58;;;;;;;;;1.25;1.00;;;;;8.91;46.54;97846.94;6338748;20;1804539;-43
2023/03/11 10:41:43;;;;;;;;;4.00;2.00;;;;;8.06;47.50;97856.56;6331694;20;1813957;-41
2023/03/11 10:44:25;;;;;;;;;1.00;1.00;;;;;7.63;48.78;97854.63;6320802;20;3446154;-46
2023/03/11 10:46:52;;;;;;;;;1.33;0.00;;;;;7.19;48.92;97866.97;6290032;20;2729545;-43
2023/03/11 10:49:21;;;;;;;;;6.00;2.00;;;;;7.17;48.87;97868.91;6337132;20;1813949;-45
2023/03/11 10:51:53;;;;;;;;;4.00;2.00;;;;;7.10;49.56;97867.66;6336462;20;1819568;-44
2023/03/11 10:54:39;;;;;;;;;3.00;1.00;;;;;7.10;49.56;97867.66;6318446;20;2733697;-44
2023/03/11 10:57:40;;;;;;;;;3.00;2.00;;;;;-146.39;100.00;62182.44;6320807;20;2746227;-45
2023/03/11 11:00:27;;;;;;;;;1.75;1.75;;;;;6.79;50.79;97862.00;6333112;20;1816959;-43
2023/03/11 11:02:57;;;;;;;;;1.50;1.50;;;;;-146.39;100.00;62182.44;6335404;20;1803516;-43
2023/03/11 11:05:34;;;;;;;;;1.00;1.00;;;;;6.62;51.54;97853.56;6318653;20;3427348;-45
2023/03/11 11:08:14;;;;;;;;;2.25;1.00;;;;;-146.39;100.00;62182.44;6334910;20;1815979;-44
2023/03/11 11:11:00;;;;;;;;;3.00;3.00;;;;;6.60;51.51;97854.53;6335580;20;1820156;-43
2023/03/11 11:13:33;;;;;;;;;3.00;3.00;;;;;6.38;51.03;97847.28;6317948;20;2737771;-43
2023/03/11 11:16:15;;;;;;;;;3.50;2.00;;;;;6.45;52.08;97849.47;6337318;20;1807591;-43
2023/03/11 11:18:50;;;;;;;;;12.00;8.00;;;;;6.38;52.33;97843.78;6319414;20;2760728;-43
2023/03/11 11:21:39;;;;;;;;;5.00;5.00;;;;;6.41;52.97;97853.34;6288589;20;2748197;-44
2023/03/11 11:24:27;;;;;;;;;8.80;4.40;;;;;6.27;54.16;97852.56;6311446;20;2757607;-44
2023/03/11 11:27:03;;;;;;;;;3.00;3.00;;;;;6.43;53.34;97840.78;6333688;20;1825459;-42
2023/03/11 11:29:33;;;;;;;;;1.00;1.00;;;;;6.30;53.25;97856.81;6335790;20;1815769;-42
2023/03/11 11:32:25;;;;;;;;;7.25;5.75;;;;;6.62;53.27;97867.75;6335903;20;1843098;-43
2023/03/11 11:35:18;;;;;;;;;2.25;1.50;;;;;6.61;51.35;97866.06;6335662;20;1810419;-44
2023/03/11 11:37:59;;;;;;;;;2.50;2.50;;;;;6.76;51.35;97880.03;6333770;20;1823306;-43
2023/03/11 11:40:33;;;;;;;;;1.33;1.33;;;;;6.65;51.43;97888.84;6316788;20;3446098;-44
2023/03/11 11:43:16;;;;;;;;;1.00;1.00;;;;;6.83;51.84;97883.97;6302587;20;1811764;-43
2023/03/11 11:46:06;;;;;;;;;3.25;2.00;;;;;7.53;50.80;97907.09;6332688;20;1809644;-44
2023/03/11 11:49:21;;;;;;;;;2.00;0.25;;;;;7.57;50.87;97905.00;6334197;20;1805516;-47
2023/03/11 11:52:13;;;;;;;;;6.00;3.00;;;;;7.74;49.48;97906.34;6316238;20;2756550;-45
2023/03/11 11:55:14;;;;;;;;;17.00;10.00;;;;;7.78;50.41;97935.38;6278747;20;2800320;-49
2023/03/11 11:57:41;;;;;;;;;5.50;4.50;;;;;7.62;49.83;97932.22;6315918;20;2754473;-47
2023/03/11 12:00:36;;;;;;;;;17.00;11.33;;;;;8.02;49.61;97942.44;6283055;20;2798517;-43
2023/03/11 12:03:45;;;;;;;;;6.00;3.00;;;;;7.93;50.45;97944.03;6314243;20;2749392;-43
2023/03/11 12:07:03;;;;;;;;;19.33;17.33;;;;;7.73;50.96;97944.72;6283111;20;2821303;-48
2023/03/11 12:10:16;;;;;;;;;10.75;9.75;;;;;7.35;52.77;97946.72;6331768;20;1800386;-44
2023/03/11 12:13:47;;;;;;;;;10.00;9.00;;;;;7.31;53.23;97952.41;6318651;20;2763860;-46
2023/03/11 12:16:58;;;;;;;;;6.20;4.60;;;;;7.51;51.76;97925.03;6307425;20;2750313;-45
2023/03/11 12:19:51;;;;;;;;;3.50;2.00;;;;;7.34;50.02;97938.81;6313484;20;2751759;-48
2023/03/11 12:22:58;;;;;;;;;3.00;3.00;;;;;7.52;49.37;97945.41;6333634;20;1809911;-43
2023/03/11 12:26:05;;;;;;;;;5.50;4.25;;;;;7.46;49.33;97937.88;6333893;20;1818118;-45
2023/03/11 12:28:55;;;;;;;;;6.00;3.75;;;;;7.17;49.54;97948.97;6331498;20;1823258;-43
2023/03/11 12:31:28;;;;;;;;;6.00;3.00;;;;;7.30;49.27;97934.69;6330381;20;1822259;-44
2023/03/11 12:34:02;;;;;;;;;8.50;4.50;;;;;7.40;49.67;97935.69;6312141;20;2749286;-47
2023/03/11 12:36:39;;;;;;;;;5.75;3.50;;;;;7.60;49.60;97924.31;6300202;20;1817061;-45
2023/03/11 12:39:32;;;;;;;;;2.25;2.25;;;;;8.03;48.26;97925.41;6329891;20;1808233;-43
2023/03/11 12:42:10;;;;;;;;;5.00;3.50;;;;;7.97;47.65;97942.78;6330338;20;1819167;-44
2023/03/11 12:44:39;;;;;;;;;4.00;2.75;;;;;8.12;47.37;97941.59;6333690;20;1819739;-42
2023/03/11 12:47:11;;;;;;;;;4.00;2.75;;;;;8.44;47.20;97940.84;6332178;20;1810791;-43
2023/03/11 12:49:54;;;;;;;;;5.00;1.75;;;;;8.40;47.28;97936.75;6333298;20;1813865;-45
2023/03/11 12:52:27;;;;;;;;;1.00;1.00;;;;;8.66;46.60;97941.78;6333053;20;1815103;-44